sensor_id;sensor_type;location;lat;lon;timestamp;temperature;humidity
21149;DHT22;10732;51.472;6.466;2022-09-16T00:00:49;12.70;99.90
21149;DHT22;10732;51.472;6.466;2022-09-16T00:03:16;12.60;99.90
21149;DHT22;10732;51.472;6.466;2022-09-16T00:05:43;12.50;99.90
21149;DHT22;10732;51.472;6.466;2022-09-16T00:08:10;12.50;99.90
21149;DHT22;10732;51.472;6.466;2022-09-16T00:10:36;12.40;99.90
21149;DHT22;10732;51.472;6.466;2022-09-16T00:13:02;12.40;99.90
21149;DHT22;10732;51.472;6.466;2022-09-16T00:15:28;12.40;99.90
21149;DHT22;10732;51.472;6.466;2022-09-16T00:17:53;12.30;99.90
21149;DHT22;10732;51.472;6.466;2022-09-16T00:20:20;12.30;99.90
21149;DHT22;10732;51.472;6.466;2022-09-16T00:22:46;12.20;99.90
21149;DHT22;10732;51.472;6.466;2022-09-16T00:25:11;12.20;99.90
21149;DHT22;10732;51.472;6.466;2022-09-16T00:27:37;12.10;99.90
21149;DHT22;10732;51.472;6.466;2022-09-16T00:30:03;12.10;99.90
21149;DHT22;10732;51.472;6.466;2022-09-16T00:32:28;12.10;99.90
21149;DHT22;10732;51.472;6.466;2022-09-16T00:34:54;12.10;99.90
21149;DHT22;10732;51.472;6.466;2022-09-16T00:37:19;12.10;99.90
21149;DHT22;10732;51.472;6.466;2022-09-16T00:39:48;12.10;99.90
21149;DHT22;10732;51.472;6.466;2022-09-16T00:42:15;12.10;99.90
21149;DHT22;10732;51.472;6.466;2022-09-16T00:44:54;12.10;99.90
21149;DHT22;10732;51.472;6.466;2022-09-16T00:47:31;12.10;99.90
21149;DHT22;10732;51.472;6.466;2022-09-16T00:50:09;12.10;99.90
21149;DHT22;10732;51.472;6.466;2022-09-16T00:52:37;12.10;99.90
21149;DHT22;10732;51.472;6.466;2022-09-16T00:55:06;12.10;99.90
21149;DHT22;10732;51.472;6.466;2022-09-16T00:57:33;12.10;99.90
21149;DHT22;10732;51.472;6.466;2022-09-16T00:59:59;12.10;99.90
21149;DHT22;10732;51.472;6.466;2022-09-16T01:02:26;12.20;99.90
21149;DHT22;10732;51.472;6.466;2022-09-16T01:05:05;12.20;99.90
21149;DHT22;10732;51.472;6.466;2022-09-16T01:10:06;12.20;99.90
21149;DHT22;10732;51.472;6.466;2022-09-16T01:12:32;12.20;99.90
21149;DHT22;10732;51.472;6.466;2022-09-16T01:14:59;12.20;99.90
21149;DHT22;10732;51.472;6.466;2022-09-16T01:17:53;12.20;99.90
21149;DHT22;10732;51.472;6.466;2022-09-16T01:23:23;12.10;99.90
21149;DHT22;10732;51.472;6.466;2022-09-16T01:35:02;12.20;99.90
21149;DHT22;10732;51.472;6.466;2022-09-16T01:43:17;12.30;99.90
21149;DHT22;10732;51.472;6.466;2022-09-16T01:51:49;12.30;99.90
21149;DHT22;10732;51.472;6.466;2022-09-16T01:54:26;12.30;99.90
21149;DHT22;10732;51.472;6.466;2022-09-16T01:57:17;12.30;99.90
21149;DHT22;10732;51.472;6.466;2022-09-16T01:59:51;12.40;99.90
21149;DHT22;10732;51.472;6.466;2022-09-16T02:03:04;12.30;99.90
21149;DHT22;10732;51.472;6.466;2022-09-16T02:05:17;12.30;99.90
21149;DHT22;10732;51.472;6.466;2022-09-16T02:07:50;12.30;99.90
21149;DHT22;10732;51.472;6.466;2022-09-16T02:10:27;12.30;99.90
21149;DHT22;10732;51.472;6.466;2022-09-16T02:12:58;12.30;99.90
21149;DHT22;10732;51.472;6.466;2022-09-16T02:15:28;12.30;99.90
21149;DHT22;10732;51.472;6.466;2022-09-16T02:18:14;12.20;99.90
21149;DHT22;10732;51.472;6.466;2022-09-16T02:20:45;12.20;99.90
21149;DHT22;10732;51.472;6.466;2022-09-16T02:23:14;12.20;99.90
21149;DHT22;10732;51.472;6.466;2022-09-16T02:25:43;12.20;99.90
21149;DHT22;10732;51.472;6.466;2022-09-16T02:28:13;12.20;99.90
21149;DHT22;10732;51.472;6.466;2022-09-16T02:30:44;12.20;99.90
21149;DHT22;10732;51.472;6.466;2022-09-16T02:33:12;12.20;99.90
21149;DHT22;10732;51.472;6.466;2022-09-16T02:35:40;12.20;99.90
21149;DHT22;10732;51.472;6.466;2022-09-16T02:38:10;12.20;99.90
21149;DHT22;10732;51.472;6.466;2022-09-16T02:40:45;12.20;99.90
21149;DHT22;10732;51.472;6.466;2022-09-16T02:43:12;12.20;99.90
21149;DHT22;10732;51.472;6.466;2022-09-16T02:48:55;12.10;99.90
21149;DHT22;10732;51.472;6.466;2022-09-16T02:51:54;12.10;99.90
21149;DHT22;10732;51.472;6.466;2022-09-16T02:57:24;12.00;99.90
21149;DHT22;10732;51.472;6.466;2022-09-16T02:59:50;12.00;99.90
21149;DHT22;10732;51.472;6.466;2022-09-16T03:02:16;11.90;99.90
21149;DHT22;10732;51.472;6.466;2022-09-16T03:04:41;11.90;99.90
21149;DHT22;10732;51.472;6.466;2022-09-16T03:07:09;11.90;99.90
21149;DHT22;10732;51.472;6.466;2022-09-16T03:09:38;11.80;99.90
21149;DHT22;10732;51.472;6.466;2022-09-16T03:15:12;11.80;99.90
21149;DHT22;10732;51.472;6.466;2022-09-16T03:21:12;11.70;99.90
21149;DHT22;10732;51.472;6.466;2022-09-16T03:29:27;11.70;99.90
21149;DHT22;10732;51.472;6.466;2022-09-16T03:32:22;11.70;99.90
21149;DHT22;10732;51.472;6.466;2022-09-16T03:37:19;11.80;99.90
21149;DHT22;10732;51.472;6.466;2022-09-16T03:39:55;11.90;99.90
21149;DHT22;10732;51.472;6.466;2022-09-16T03:42:22;11.90;99.90
21149;DHT22;10732;51.472;6.466;2022-09-16T03:44:47;11.90;99.90
21149;DHT22;10732;51.472;6.466;2022-09-16T03:47:14;12.00;99.90
21149;DHT22;10732;51.472;6.466;2022-09-16T03:49:39;12.00;99.90
21149;DHT22;10732;51.472;6.466;2022-09-16T03:52:05;12.00;99.90
21149;DHT22;10732;51.472;6.466;2022-09-16T03:54:31;12.00;99.90
21149;DHT22;10732;51.472;6.466;2022-09-16T03:56:57;12.00;99.90
21149;DHT22;10732;51.472;6.466;2022-09-16T03:59:25;11.90;99.90
21149;DHT22;10732;51.472;6.466;2022-09-16T04:01:51;11.90;99.90
21149;DHT22;10732;51.472;6.466;2022-09-16T04:04:16;11.90;99.90
21149;DHT22;10732;51.472;6.466;2022-09-16T04:06:42;11.80;99.90
21149;DHT22;10732;51.472;6.466;2022-09-16T04:09:10;11.80;99.90
21149;DHT22;10732;51.472;6.466;2022-09-16T04:11:37;11.70;99.90
21149;DHT22;10732;51.472;6.466;2022-09-16T04:14:03;11.70;99.90
21149;DHT22;10732;51.472;6.466;2022-09-16T04:16:29;11.60;99.90
21149;DHT22;10732;51.472;6.466;2022-09-16T04:18:55;11.60;99.90
21149;DHT22;10732;51.472;6.466;2022-09-16T04:21:21;11.60;99.90
21149;DHT22;10732;51.472;6.466;2022-09-16T04:23:47;11.60;99.90
21149;DHT22;10732;51.472;6.466;2022-09-16T04:26:13;11.60;99.90
21149;DHT22;10732;51.472;6.466;2022-09-16T04:28:38;11.60;99.90
21149;DHT22;10732;51.472;6.466;2022-09-16T04:31:06;11.60;99.90
21149;DHT22;10732;51.472;6.466;2022-09-16T04:33:34;11.60;99.90
21149;DHT22;10732;51.472;6.466;2022-09-16T04:36:08;11.60;99.90
21149;DHT22;10732;51.472;6.466;2022-09-16T04:38:35;11.60;99.90
21149;DHT22;10732;51.472;6.466;2022-09-16T04:41:06;11.60;99.90
21149;DHT22;10732;51.472;6.466;2022-09-16T04:43:32;11.60;99.90
21149;DHT22;10732;51.472;6.466;2022-09-16T04:45:58;11.60;99.90
21149;DHT22;10732;51.472;6.466;2022-09-16T04:48:24;11.60;99.90
21149;DHT22;10732;51.472;6.466;2022-09-16T04:50:51;11.60;99.90
21149;DHT22;10732;51.472;6.466;2022-09-16T04:53:17;11.60;99.90
21149;DHT22;10732;51.472;6.466;2022-09-16T04:55:44;11.60;99.90
21149;DHT22;10732;51.472;6.466;2022-09-16T04:58:10;11.60;99.90
21149;DHT22;10732;51.472;6.466;2022-09-16T05:00:36;11.50;99.90
21149;DHT22;10732;51.472;6.466;2022-09-16T05:03:01;11.50;99.90
21149;DHT22;10732;51.472;6.466;2022-09-16T05:05:27;11.50;99.90
21149;DHT22;10732;51.472;6.466;2022-09-16T05:07:53;11.50;99.90
21149;DHT22;10732;51.472;6.466;2022-09-16T05:10:18;11.50;99.90
21149;DHT22;10732;51.472;6.466;2022-09-16T05:12:44;11.50;99.90
21149;DHT22;10732;51.472;6.466;2022-09-16T05:15:09;11.50;99.90
21149;DHT22;10732;51.472;6.466;2022-09-16T05:17:35;11.50;99.90
21149;DHT22;10732;51.472;6.466;2022-09-16T05:20:01;11.60;99.90
21149;DHT22;10732;51.472;6.466;2022-09-16T05:22:26;11.60;99.90
21149;DHT22;10732;51.472;6.466;2022-09-16T05:24:52;11.70;99.90
21149;DHT22;10732;51.472;6.466;2022-09-16T05:27:17;11.60;99.90
21149;DHT22;10732;51.472;6.466;2022-09-16T05:29:43;11.70;99.90
21149;DHT22;10732;51.472;6.466;2022-09-16T05:32:08;11.80;99.90
21149;DHT22;10732;51.472;6.466;2022-09-16T05:34:34;11.70;99.90
21149;DHT22;10732;51.472;6.466;2022-09-16T05:37:01;11.70;99.90
21149;DHT22;10732;51.472;6.466;2022-09-16T05:39:27;11.60;99.90
21149;DHT22;10732;51.472;6.466;2022-09-16T05:41:55;11.70;99.90
21149;DHT22;10732;51.472;6.466;2022-09-16T05:44:21;11.70;99.90
21149;DHT22;10732;51.472;6.466;2022-09-16T05:46:47;11.70;99.90
21149;DHT22;10732;51.472;6.466;2022-09-16T05:49:12;11.70;99.90
21149;DHT22;10732;51.472;6.466;2022-09-16T05:51:39;11.60;99.90
21149;DHT22;10732;51.472;6.466;2022-09-16T05:54:08;11.60;99.90
21149;DHT22;10732;51.472;6.466;2022-09-16T05:56:33;11.60;99.90
21149;DHT22;10732;51.472;6.466;2022-09-16T05:58:59;11.60;99.90
21149;DHT22;10732;51.472;6.466;2022-09-16T06:01:27;11.60;99.90
21149;DHT22;10732;51.472;6.466;2022-09-16T06:03:54;11.80;99.90
21149;DHT22;10732;51.472;6.466;2022-09-16T06:06:23;11.90;99.90
21149;DHT22;10732;51.472;6.466;2022-09-16T06:08:49;11.90;99.90
21149;DHT22;10732;51.472;6.466;2022-09-16T06:11:15;12.00;99.90
21149;DHT22;10732;51.472;6.466;2022-09-16T06:13:41;12.00;99.90
21149;DHT22;10732;51.472;6.466;2022-09-16T06:16:07;12.20;99.90
21149;DHT22;10732;51.472;6.466;2022-09-16T06:18:34;12.30;99.90
21149;DHT22;10732;51.472;6.466;2022-09-16T06:21:06;12.50;99.90
21149;DHT22;10732;51.472;6.466;2022-09-16T06:23:33;12.90;99.90
21149;DHT22;10732;51.472;6.466;2022-09-16T06:26:17;13.10;99.90
21149;DHT22;10732;51.472;6.466;2022-09-16T06:28:43;13.20;99.90
21149;DHT22;10732;51.472;6.466;2022-09-16T06:31:14;13.20;99.90
21149;DHT22;10732;51.472;6.466;2022-09-16T06:33:40;13.30;99.90
21149;DHT22;10732;51.472;6.466;2022-09-16T06:36:12;13.30;99.90
21149;DHT22;10732;51.472;6.466;2022-09-16T06:38:38;13.30;99.90
21149;DHT22;10732;51.472;6.466;2022-09-16T06:41:06;13.30;99.90
21149;DHT22;10732;51.472;6.466;2022-09-16T06:43:33;13.40;99.90
21149;DHT22;10732;51.472;6.466;2022-09-16T06:46:00;13.40;99.90
21149;DHT22;10732;51.472;6.466;2022-09-16T06:48:27;13.40;99.90
21149;DHT22;10732;51.472;6.466;2022-09-16T06:50:58;13.40;99.90
21149;DHT22;10732;51.472;6.466;2022-09-16T06:53:24;13.40;99.90
21149;DHT22;10732;51.472;6.466;2022-09-16T06:55:50;13.40;99.90
21149;DHT22;10732;51.472;6.466;2022-09-16T06:58:16;13.60;99.90
21149;DHT22;10732;51.472;6.466;2022-09-16T07:00:41;13.50;99.90
21149;DHT22;10732;51.472;6.466;2022-09-16T07:03:07;13.80;99.90
21149;DHT22;10732;51.472;6.466;2022-09-16T07:05:32;14.90;99.90
21149;DHT22;10732;51.472;6.466;2022-09-16T07:07:59;15.60;99.90
21149;DHT22;10732;51.472;6.466;2022-09-16T07:10:24;16.00;99.90
21149;DHT22;10732;51.472;6.466;2022-09-16T07:12:50;16.20;99.90
21149;DHT22;10732;51.472;6.466;2022-09-16T07:15:16;15.90;99.90
21149;DHT22;10732;51.472;6.466;2022-09-16T07:17:41;16.20;99.90
21149;DHT22;10732;51.472;6.466;2022-09-16T07:20:07;17.40;99.90
21149;DHT22;10732;51.472;6.466;2022-09-16T07:22:33;17.60;1.00
21149;DHT22;10732;51.472;6.466;2022-09-16T07:24:58;18.20;1.00
21149;DHT22;10732;51.472;6.466;2022-09-16T07:27:24;19.60;99.90
21149;DHT22;10732;51.472;6.466;2022-09-16T07:29:49;19.60;99.90
21149;DHT22;10732;51.472;6.466;2022-09-16T07:32:15;18.60;1.00
21149;DHT22;10732;51.472;6.466;2022-09-16T07:34:40;18.40;1.00
21149;DHT22;10732;51.472;6.466;2022-09-16T07:37:06;18.20;1.00
21149;DHT22;10732;51.472;6.466;2022-09-16T07:39:31;19.20;1.00
21149;DHT22;10732;51.472;6.466;2022-09-16T07:41:57;19.80;99.90
21149;DHT22;10732;51.472;6.466;2022-09-16T07:44:22;20.60;1.00
21149;DHT22;10732;51.472;6.466;2022-09-16T07:46:49;19.70;99.90
21149;DHT22;10732;51.472;6.466;2022-09-16T07:49:15;19.40;1.00
21149;DHT22;10732;51.472;6.466;2022-09-16T07:51:42;18.90;1.00
21149;DHT22;10732;51.472;6.466;2022-09-16T07:54:10;18.80;99.90
21149;DHT22;10732;51.472;6.466;2022-09-16T07:56:37;19.50;99.90
21149;DHT22;10732;51.472;6.466;2022-09-16T07:59:05;19.90;99.90
21149;DHT22;10732;51.472;6.466;2022-09-16T08:01:31;20.80;99.90
21149;DHT22;10732;51.472;6.466;2022-09-16T08:03:58;20.80;99.90
21149;DHT22;10732;51.472;6.466;2022-09-16T08:06:26;21.30;1.00
21149;DHT22;10732;51.472;6.466;2022-09-16T08:08:53;22.10;1.00
21149;DHT22;10732;51.472;6.466;2022-09-16T08:11:21;21.70;1.00
21149;DHT22;10732;51.472;6.466;2022-09-16T08:13:46;21.90;1.00
21149;DHT22;10732;51.472;6.466;2022-09-16T08:16:18;20.90;99.90
21149;DHT22;10732;51.472;6.466;2022-09-16T08:18:45;19.60;99.90
21149;DHT22;10732;51.472;6.466;2022-09-16T08:21:13;20.10;99.90
21149;DHT22;10732;51.472;6.466;2022-09-16T08:23:39;20.80;99.90
21149;DHT22;10732;51.472;6.466;2022-09-16T08:26:06;21.60;1.00
21149;DHT22;10732;51.472;6.466;2022-09-16T08:28:36;22.00;1.00
21149;DHT22;10732;51.472;6.466;2022-09-16T08:31:02;22.60;99.90
21149;DHT22;10732;51.472;6.466;2022-09-16T08:33:28;24.00;1.00
21149;DHT22;10732;51.472;6.466;2022-09-16T08:36:03;23.40;1.00
21149;DHT22;10732;51.472;6.466;2022-09-16T08:38:30;23.70;1.00
21149;DHT22;10732;51.472;6.466;2022-09-16T08:44:29;23.20;1.00
21149;DHT22;10732;51.472;6.466;2022-09-16T08:49:45;23.00;1.00
21149;DHT22;10732;51.472;6.466;2022-09-16T08:54:58;23.40;1.00
21149;DHT22;10732;51.472;6.466;2022-09-16T08:57:28;23.00;1.00
21149;DHT22;10732;51.472;6.466;2022-09-16T08:59:57;22.60;1.00
21149;DHT22;10732;51.472;6.466;2022-09-16T09:02:51;22.90;1.00
21149;DHT22;10732;51.472;6.466;2022-09-16T09:05:53;23.80;99.90
21149;DHT22;10732;51.472;6.466;2022-09-16T09:08:25;23.70;99.90
21149;DHT22;10732;51.472;6.466;2022-09-16T09:11:14;24.80;99.90
21149;DHT22;10732;51.472;6.466;2022-09-16T09:13:47;24.10;99.90
21149;DHT22;10732;51.472;6.466;2022-09-16T09:24:55;22.80;1.00
21149;DHT22;10732;51.472;6.466;2022-09-16T09:27:30;21.50;1.00
21149;DHT22;10732;51.472;6.466;2022-09-16T09:30:04;20.80;1.00
21149;DHT22;10732;51.472;6.466;2022-09-16T09:38:31;19.20;1.00
21149;DHT22;10732;51.472;6.466;2022-09-16T09:44:00;19.10;99.90
21149;DHT22;10732;51.472;6.466;2022-09-16T09:46:36;19.60;1.00
21149;DHT22;10732;51.472;6.466;2022-09-16T09:49:33;20.40;1.00
21149;DHT22;10732;51.472;6.466;2022-09-16T09:54:31;23.60;99.90
21149;DHT22;10732;51.472;6.466;2022-09-16T09:57:19;24.50;99.90
21149;DHT22;10732;51.472;6.466;2022-09-16T09:59:57;24.80;99.90
21149;DHT22;10732;51.472;6.466;2022-09-16T10:02:25;24.00;99.90
21149;DHT22;10732;51.472;6.466;2022-09-16T10:04:54;24.20;99.90
21149;DHT22;10732;51.472;6.466;2022-09-16T10:07:23;23.60;99.90
21149;DHT22;10732;51.472;6.466;2022-09-16T10:10:13;23.80;99.90
21149;DHT22;10732;51.472;6.466;2022-09-16T10:12:39;22.60;99.90
21149;DHT22;10732;51.472;6.466;2022-09-16T10:15:05;21.60;99.90
21149;DHT22;10732;51.472;6.466;2022-09-16T10:17:32;20.40;1.00
21149;DHT22;10732;51.472;6.466;2022-09-16T10:20:01;19.80;1.00
21149;DHT22;10732;51.472;6.466;2022-09-16T10:22:31;19.40;99.90
21149;DHT22;10732;51.472;6.466;2022-09-16T10:25:05;19.10;1.00
21149;DHT22;10732;51.472;6.466;2022-09-16T10:27:34;18.60;1.00
21149;DHT22;10732;51.472;6.466;2022-09-16T10:30:17;18.40;99.90
21149;DHT22;10732;51.472;6.466;2022-09-16T10:33:02;18.30;99.90
21149;DHT22;10732;51.472;6.466;2022-09-16T10:35:31;19.00;1.00
21149;DHT22;10732;51.472;6.466;2022-09-16T10:38:01;20.70;1.00
21149;DHT22;10732;51.472;6.466;2022-09-16T10:40:27;21.90;99.90
21149;DHT22;10732;51.472;6.466;2022-09-16T10:43:01;22.60;99.90
21149;DHT22;10732;51.472;6.466;2022-09-16T10:45:30;21.80;99.90
21149;DHT22;10732;51.472;6.466;2022-09-16T10:48:00;21.00;1.00
21149;DHT22;10732;51.472;6.466;2022-09-16T10:50:27;20.20;99.90
21149;DHT22;10732;51.472;6.466;2022-09-16T10:52:53;19.60;1.00
21149;DHT22;10732;51.472;6.466;2022-09-16T10:55:23;17.80;99.90
21149;DHT22;10732;51.472;6.466;2022-09-16T10:57:49;16.90;1.00
21149;DHT22;10732;51.472;6.466;2022-09-16T11:00:20;16.40;12.20
21149;DHT22;10732;51.472;6.466;2022-09-16T11:05:49;16.10;1.00
21149;DHT22;10732;51.472;6.466;2022-09-16T11:11:40;16.20;99.90
21149;DHT22;10732;51.472;6.466;2022-09-16T11:14:27;16.30;99.90
21149;DHT22;10732;51.472;6.466;2022-09-16T11:22:36;16.30;99.90
21149;DHT22;10732;51.472;6.466;2022-09-16T11:27:53;16.00;99.90
21149;DHT22;10732;51.472;6.466;2022-09-16T11:30:22;16.00;1.00
21149;DHT22;10732;51.472;6.466;2022-09-16T11:35:45;15.90;99.90
21149;DHT22;10732;51.472;6.466;2022-09-16T11:38:36;16.00;1.00
21149;DHT22;10732;51.472;6.466;2022-09-16T11:41:08;15.90;99.90
21149;DHT22;10732;51.472;6.466;2022-09-16T11:43:53;16.10;1.00
21149;DHT22;10732;51.472;6.466;2022-09-16T11:46:51;16.40;1.00
21149;DHT22;10732;51.472;6.466;2022-09-16T11:49:51;16.90;1.00
21149;DHT22;10732;51.472;6.466;2022-09-16T11:57:41;17.50;1.00
21149;DHT22;10732;51.472;6.466;2022-09-16T12:00:13;17.50;99.90
21149;DHT22;10732;51.472;6.466;2022-09-16T12:05:40;17.20;1.00
21149;DHT22;10732;51.472;6.466;2022-09-16T12:08:16;17.20;99.90
21149;DHT22;10732;51.472;6.466;2022-09-16T12:11:19;17.60;99.90
21149;DHT22;10732;51.472;6.466;2022-09-16T12:13:57;17.30;1.00
21149;DHT22;10732;51.472;6.466;2022-09-16T12:16:37;17.60;1.00
21149;DHT22;10732;51.472;6.466;2022-09-16T12:19:34;17.50;99.90
21149;DHT22;10732;51.472;6.466;2022-09-16T12:24:52;17.60;99.90
21149;DHT22;10732;51.472;6.466;2022-09-16T12:27:31;17.60;1.00
21149;DHT22;10732;51.472;6.466;2022-09-16T12:30:04;17.10;1.00
21149;DHT22;10732;51.472;6.466;2022-09-16T12:33:15;17.40;1.00
21149;DHT22;10732;51.472;6.466;2022-09-16T12:35:37;17.70;1.00
21149;DHT22;10732;51.472;6.466;2022-09-16T12:38:03;18.00;99.90
21149;DHT22;10732;51.472;6.466;2022-09-16T12:40:56;17.80;1.00
21149;DHT22;10732;51.472;6.466;2022-09-16T12:46:10;18.00;1.00
21149;DHT22;10732;51.472;6.466;2022-09-16T13:02:25;17.00;56.30
21149;DHT22;10732;51.472;6.466;2022-09-16T13:04:55;16.50;99.90
21149;DHT22;10732;51.472;6.466;2022-09-16T13:07:27;16.30;1.00
21149;DHT22;10732;51.472;6.466;2022-09-16T13:10:29;16.20;87.80
21149;DHT22;10732;51.472;6.466;2022-09-16T13:12:59;16.10;1.00
21149;DHT22;10732;51.472;6.466;2022-09-16T13:15:30;16.10;1.00
21149;DHT22;10732;51.472;6.466;2022-09-16T13:21:05;16.20;99.90
21149;DHT22;10732;51.472;6.466;2022-09-16T13:23:40;16.10;99.90
21149;DHT22;10732;51.472;6.466;2022-09-16T13:26:08;16.10;1.00
21149;DHT22;10732;51.472;6.466;2022-09-16T13:28:37;15.90;99.90
21149;DHT22;10732;51.472;6.466;2022-09-16T13:33:44;15.80;1.00
21149;DHT22;10732;51.472;6.466;2022-09-16T13:38:48;15.90;1.00
21149;DHT22;10732;51.472;6.466;2022-09-16T13:41:29;16.30;1.00
21149;DHT22;10732;51.472;6.466;2022-09-16T13:43:55;16.20;1.00
21149;DHT22;10732;51.472;6.466;2022-09-16T13:46:31;16.30;1.00
21149;DHT22;10732;51.472;6.466;2022-09-16T13:51:31;16.30;99.90
21149;DHT22;10732;51.472;6.466;2022-09-16T13:53:58;16.20;1.00
21149;DHT22;10732;51.472;6.466;2022-09-16T13:57:02;16.00;1.00
21149;DHT22;10732;51.472;6.466;2022-09-16T14:02:35;16.00;99.90
21149;DHT22;10732;51.472;6.466;2022-09-16T14:13:21;15.90;99.90
21149;DHT22;10732;51.472;6.466;2022-09-16T14:15:52;15.90;1.00
21149;DHT22;10732;51.472;6.466;2022-09-16T14:18:22;15.90;1.00
21149;DHT22;10732;51.472;6.466;2022-09-16T14:21:05;15.70;1.00
21149;DHT22;10732;51.472;6.466;2022-09-16T14:23:41;15.70;1.00
21149;DHT22;10732;51.472;6.466;2022-09-16T14:26:17;15.70;99.90
21149;DHT22;10732;51.472;6.466;2022-09-16T14:28:43;15.90;1.00
21149;DHT22;10732;51.472;6.466;2022-09-16T14:31:17;15.90;99.90
21149;DHT22;10732;51.472;6.466;2022-09-16T14:33:58;15.90;1.00
21149;DHT22;10732;51.472;6.466;2022-09-16T14:36:28;16.00;99.90
21149;DHT22;10732;51.472;6.466;2022-09-16T14:39:00;15.90;99.90
21149;DHT22;10732;51.472;6.466;2022-09-16T14:41:46;15.80;1.00
21149;DHT22;10732;51.472;6.466;2022-09-16T14:46:59;15.90;99.90
21149;DHT22;10732;51.472;6.466;2022-09-16T14:52:16;16.00;99.90
21149;DHT22;10732;51.472;6.466;2022-09-16T14:54:43;16.20;1.00
21149;DHT22;10732;51.472;6.466;2022-09-16T14:57:20;16.10;1.00
21149;DHT22;10732;51.472;6.466;2022-09-16T14:59:51;15.90;99.90
21149;DHT22;10732;51.472;6.466;2022-09-16T15:03:03;15.70;1.00
21149;DHT22;10732;51.472;6.466;2022-09-16T15:05:35;15.50;99.90
21149;DHT22;10732;51.472;6.466;2022-09-16T15:08:13;15.30;1.00
21149;DHT22;10732;51.472;6.466;2022-09-16T15:10:46;15.40;99.90
21149;DHT22;10732;51.472;6.466;2022-09-16T15:13:14;15.40;1.00
21149;DHT22;10732;51.472;6.466;2022-09-16T15:15:54;15.40;1.00
21149;DHT22;10732;51.472;6.466;2022-09-16T15:18:26;15.20;1.00
21149;DHT22;10732;51.472;6.466;2022-09-16T15:23:30;15.00;99.90
21149;DHT22;10732;51.472;6.466;2022-09-16T15:26:05;14.80;99.90
21149;DHT22;10732;51.472;6.466;2022-09-16T15:28:32;15.00;99.90
21149;DHT22;10732;51.472;6.466;2022-09-16T15:30:58;15.00;1.00
21149;DHT22;10732;51.472;6.466;2022-09-16T15:33:32;15.10;1.00
21149;DHT22;10732;51.472;6.466;2022-09-16T15:35:58;15.20;99.90
21149;DHT22;10732;51.472;6.466;2022-09-16T15:38:26;15.30;99.90
21149;DHT22;10732;51.472;6.466;2022-09-16T15:41:09;15.20;1.00
21149;DHT22;10732;51.472;6.466;2022-09-16T15:43:38;15.30;1.00
21149;DHT22;10732;51.472;6.466;2022-09-16T15:46:13;15.20;99.90
21149;DHT22;10732;51.472;6.466;2022-09-16T15:48:45;15.20;1.00
21149;DHT22;10732;51.472;6.466;2022-09-16T15:53:51;15.30;99.90
21149;DHT22;10732;51.472;6.466;2022-09-16T15:56:36;15.20;1.00
21149;DHT22;10732;51.472;6.466;2022-09-16T16:02:31;15.10;92.90
21149;DHT22;10732;51.472;6.466;2022-09-16T16:05:15;15.10;1.00
21149;DHT22;10732;51.472;6.466;2022-09-16T16:07:47;15.10;1.00
21149;DHT22;10732;51.472;6.466;2022-09-16T16:10:22;15.00;1.00
21149;DHT22;10732;51.472;6.466;2022-09-16T16:12:50;14.90;99.90
21149;DHT22;10732;51.472;6.466;2022-09-16T16:15:18;14.90;99.90
21149;DHT22;10732;51.472;6.466;2022-09-16T16:17:46;14.90;1.00
21149;DHT22;10732;51.472;6.466;2022-09-16T16:20:13;14.90;1.00
21149;DHT22;10732;51.472;6.466;2022-09-16T16:22:39;14.80;42.00
21149;DHT22;10732;51.472;6.466;2022-09-16T16:25:05;14.70;1.00
21149;DHT22;10732;51.472;6.466;2022-09-16T16:27:31;14.60;99.90
21149;DHT22;10732;51.472;6.466;2022-09-16T16:29:56;14.60;1.00
21149;DHT22;10732;51.472;6.466;2022-09-16T16:32:22;14.50;50.90
21149;DHT22;10732;51.472;6.466;2022-09-16T16:34:48;14.50;1.00
21149;DHT22;10732;51.472;6.466;2022-09-16T16:37:15;14.40;1.00
21149;DHT22;10732;51.472;6.466;2022-09-16T16:39:42;14.40;1.00
21149;DHT22;10732;51.472;6.466;2022-09-16T16:42:10;14.40;1.00
21149;DHT22;10732;51.472;6.466;2022-09-16T16:44:37;14.50;1.00
21149;DHT22;10732;51.472;6.466;2022-09-16T16:47:02;14.40;99.90
21149;DHT22;10732;51.472;6.466;2022-09-16T16:49:28;14.50;99.90
21149;DHT22;10732;51.472;6.466;2022-09-16T16:51:54;14.60;1.00
21149;DHT22;10732;51.472;6.466;2022-09-16T16:54:22;14.60;99.90
21149;DHT22;10732;51.472;6.466;2022-09-16T16:56:48;14.60;99.90
21149;DHT22;10732;51.472;6.466;2022-09-16T16:59:15;14.60;99.90
21149;DHT22;10732;51.472;6.466;2022-09-16T17:01:41;14.60;1.00
21149;DHT22;10732;51.472;6.466;2022-09-16T17:04:08;14.50;1.00
21149;DHT22;10732;51.472;6.466;2022-09-16T17:06:34;14.40;99.90
21149;DHT22;10732;51.472;6.466;2022-09-16T17:09:01;14.30;1.00
21149;DHT22;10732;51.472;6.466;2022-09-16T17:11:27;14.20;1.00
21149;DHT22;10732;51.472;6.466;2022-09-16T17:13:58;14.10;99.90
21149;DHT22;10732;51.472;6.466;2022-09-16T17:16:25;13.90;1.00
21149;DHT22;10732;51.472;6.466;2022-09-16T17:18:50;13.90;1.00
21149;DHT22;10732;51.472;6.466;2022-09-16T17:21:18;13.80;1.00
21149;DHT22;10732;51.472;6.466;2022-09-16T17:23:44;13.80;1.00
21149;DHT22;10732;51.472;6.466;2022-09-16T17:26:11;13.80;1.00
21149;DHT22;10732;51.472;6.466;2022-09-16T17:28:39;13.90;1.00
21149;DHT22;10732;51.472;6.466;2022-09-16T17:31:17;13.90;1.00
21149;DHT22;10732;51.472;6.466;2022-09-16T17:33:44;13.90;1.00
21149;DHT22;10732;51.472;6.466;2022-09-16T17:36:12;13.80;1.00
21149;DHT22;10732;51.472;6.466;2022-09-16T17:38:38;13.70;1.00
21149;DHT22;10732;51.472;6.466;2022-09-16T17:41:13;13.60;1.00
21149;DHT22;10732;51.472;6.466;2022-09-16T17:43:40;13.50;1.00
21149;DHT22;10732;51.472;6.466;2022-09-16T17:46:11;13.40;1.00
21149;DHT22;10732;51.472;6.466;2022-09-16T17:48:37;13.30;1.00
21149;DHT22;10732;51.472;6.466;2022-09-16T17:51:04;13.30;1.00
21149;DHT22;10732;51.472;6.466;2022-09-16T17:53:30;13.20;1.00
21149;DHT22;10732;51.472;6.466;2022-09-16T17:56:09;13.30;1.00
21149;DHT22;10732;51.472;6.466;2022-09-16T17:58:37;13.20;1.00
21149;DHT22;10732;51.472;6.466;2022-09-16T18:01:07;13.20;1.00
21149;DHT22;10732;51.472;6.466;2022-09-16T18:03:33;13.30;1.00
21149;DHT22;10732;51.472;6.466;2022-09-16T18:06:20;13.30;1.00
21149;DHT22;10732;51.472;6.466;2022-09-16T18:08:47;13.10;74.30
21149;DHT22;10732;51.472;6.466;2022-09-16T18:11:14;12.90;3.00
21149;DHT22;10732;51.472;6.466;2022-09-16T18:13:40;12.80;45.70
21149;DHT22;10732;51.472;6.466;2022-09-16T18:16:08;12.70;1.00
21149;DHT22;10732;51.472;6.466;2022-09-16T18:18:35;12.70;1.00
21149;DHT22;10732;51.472;6.466;2022-09-16T18:21:03;12.50;1.00
21149;DHT22;10732;51.472;6.466;2022-09-16T18:23:29;12.40;1.00
21149;DHT22;10732;51.472;6.466;2022-09-16T18:25:55;12.30;1.00
21149;DHT22;10732;51.472;6.466;2022-09-16T18:28:21;12.30;1.00
21149;DHT22;10732;51.472;6.466;2022-09-16T18:30:59;12.30;1.00
21149;DHT22;10732;51.472;6.466;2022-09-16T18:33:24;12.20;1.00